sensor_id;sensor_type;location;lat;lon;timestamp;pressure;altitude;pressure_sealevel;temperature;humidity
16694;BME280;39538;52.196;9.892;2022-11-15T00:00:43;100138.94;;;6.63;95.93
16694;BME280;39538;52.196;9.892;2022-11-15T00:03:09;100147.13;;;6.59;96.85
16694;BME280;39538;52.196;9.892;2022-11-15T00:05:36;100128.94;;;6.54;97.72
16694;BME280;39538;52.196;9.892;2022-11-15T00:08:02;100131.03;;;6.63;98.89
16694;BME280;39538;52.196;9.892;2022-11-15T00:10:29;100131.25;;;6.74;99.85
16694;BME280;39538;52.196;9.892;2022-11-15T00:12:57;100137.06;;;6.94;100.00
16694;BME280;39538;52.196;9.892;2022-11-15T00:15:23;100144.34;;;7.05;100.00
16694;BME280;39538;52.196;9.892;2022-11-15T00:17:49;100132.81;;;7.20;100.00
16694;BME280;39538;52.196;9.892;2022-11-15T00:20:17;100129.19;;;7.50;100.00
16694;BME280;39538;52.196;9.892;2022-11-15T00:22:43;100126.94;;;7.71;100.00
16694;BME280;39538;52.196;9.892;2022-11-15T00:25:10;100117.81;;;7.89;100.00
16694;BME280;39538;52.196;9.892;2022-11-15T00:27:36;100118.50;;;8.06;100.00
16694;BME280;39538;52.196;9.892;2022-11-15T00:30:05;100108.50;;;8.23;100.00
16694;BME280;39538;52.196;9.892;2022-11-15T00:32:32;100114.75;;;8.35;100.00
16694;BME280;39538;52.196;9.892;2022-11-15T00:34:58;100113.00;;;8.61;100.00
16694;BME280;39538;52.196;9.892;2022-11-15T00:37:25;100108.31;;;8.78;100.00
16694;BME280;39538;52.196;9.892;2022-11-15T00:39:51;100113.06;;;8.98;99.70
16694;BME280;39538;52.196;9.892;2022-11-15T00:42:18;100110.47;;;9.22;98.63
16694;BME280;39538;52.196;9.892;2022-11-15T00:44:44;100116.59;;;9.36;97.74
16694;BME280;39538;52.196;9.892;2022-11-15T00:47:12;100110.06;;;9.53;96.50
16694;BME280;39538;52.196;9.892;2022-11-15T00:49:39;100110.56;;;9.58;95.36
16694;BME280;39538;52.196;9.892;2022-11-15T00:52:06;100115.94;;;9.69;94.54
16694;BME280;39538;52.196;9.892;2022-11-15T00:54:32;100110.19;;;9.75;94.01
16694;BME280;39538;52.196;9.892;2022-11-15T00:56:59;100111.19;;;9.85;93.78
16694;BME280;39538;52.196;9.892;2022-11-15T00:59:25;100110.53;;;9.95;93.01
16694;BME280;39538;52.196;9.892;2022-11-15T01:01:52;100102.72;;;10.04;92.15
16694;BME280;39538;52.196;9.892;2022-11-15T01:04:20;100097.41;;;10.04;92.04
16694;BME280;39538;52.196;9.892;2022-11-15T01:06:46;100097.19;;;10.07;91.43
16694;BME280;39538;52.196;9.892;2022-11-15T01:09:13;100095.00;;;10.01;91.78
16694;BME280;39538;52.196;9.892;2022-11-15T01:11:39;100100.06;;;10.04;91.71
16694;BME280;39538;52.196;9.892;2022-11-15T01:14:06;100091.41;;;10.02;91.73
16694;BME280;39538;52.196;9.892;2022-11-15T01:16:32;100081.34;;;9.95;91.97
16694;BME280;39538;52.196;9.892;2022-11-15T01:18:59;100079.94;;;10.02;92.38
16694;BME280;39538;52.196;9.892;2022-11-15T01:21:27;100067.25;;;9.94;92.48
16694;BME280;39538;52.196;9.892;2022-11-15T01:23:54;100073.19;;;9.98;92.97
16694;BME280;39538;52.196;9.892;2022-11-15T01:26:21;100069.47;;;10.00;93.15
16694;BME280;39538;52.196;9.892;2022-11-15T01:28:48;100056.69;;;10.05;93.08
16694;BME280;39538;52.196;9.892;2022-11-15T01:31:17;100055.84;;;10.05;92.62
16694;BME280;39538;52.196;9.892;2022-11-15T01:33:44;100055.94;;;10.03;92.84
16694;BME280;39538;52.196;9.892;2022-11-15T01:36:12;100054.03;;;10.05;92.87
16694;BME280;39538;52.196;9.892;2022-11-15T01:38:40;100049.13;;;10.12;93.26
16694;BME280;39538;52.196;9.892;2022-11-15T01:41:14;100051.88;;;10.10;92.94
16694;BME280;39538;52.196;9.892;2022-11-15T01:43:41;100043.66;;;10.13;93.02
16694;BME280;39538;52.196;9.892;2022-11-15T01:46:18;100043.56;;;10.15;93.21
16694;BME280;39538;52.196;9.892;2022-11-15T01:48:50;100042.03;;;10.24;92.73
16694;BME280;39538;52.196;9.892;2022-11-15T01:51:19;100040.13;;;10.37;92.38
16694;BME280;39538;52.196;9.892;2022-11-15T01:53:50;100046.88;;;10.41;92.32
16694;BME280;39538;52.196;9.892;2022-11-15T01:56:23;100043.75;;;10.36;91.99
16694;BME280;39538;52.196;9.892;2022-11-15T01:58:52;100051.00;;;10.45;91.95
16694;BME280;39538;52.196;9.892;2022-11-15T02:01:19;100041.13;;;10.47;91.80
16694;BME280;39538;52.196;9.892;2022-11-15T02:03:49;100040.13;;;10.48;91.52
16694;BME280;39538;52.196;9.892;2022-11-15T02:06:18;100038.34;;;10.49;91.79
16694;BME280;39538;52.196;9.892;2022-11-15T02:08:46;100043.88;;;10.57;91.89
16694;BME280;39538;52.196;9.892;2022-11-15T02:11:13;100037.50;;;10.60;91.50
16694;BME280;39538;52.196;9.892;2022-11-15T02:13:39;100034.47;;;10.64;91.28
16694;BME280;39538;52.196;9.892;2022-11-15T02:16:14;100032.91;;;10.73;91.17
16694;BME280;39538;52.196;9.892;2022-11-15T02:18:50;100030.38;;;10.71;90.69
16694;BME280;39538;52.196;9.892;2022-11-15T02:21:24;100018.91;;;10.82;90.47
16694;BME280;39538;52.196;9.892;2022-11-15T02:27:31;100012.63;;;10.83;89.71
16694;BME280;39538;52.196;9.892;2022-11-15T02:30:17;100018.91;;;10.82;89.85
16694;BME280;39538;52.196;9.892;2022-11-15T02:32:46;100011.53;;;10.86;89.78
16694;BME280;39538;52.196;9.892;2022-11-15T02:35:22;100010.94;;;10.82;89.78
16694;BME280;39538;52.196;9.892;2022-11-15T02:37:54;100013.25;;;10.87;89.69
16694;BME280;39538;52.196;9.892;2022-11-15T02:40:27;100012.97;;;10.90;89.73
16694;BME280;39538;52.196;9.892;2022-11-15T02:43:04;100016.47;;;10.90;89.61
16694;BME280;39538;52.196;9.892;2022-11-15T02:45:56;100016.84;;;10.97;89.43
16694;BME280;39538;52.196;9.892;2022-11-15T02:48:26;100012.34;;;10.97;89.52
16694;BME280;39538;52.196;9.892;2022-11-15T02:50:53;100011.41;;;10.99;89.66
16694;BME280;39538;52.196;9.892;2022-11-15T02:53:23;100019.00;;;11.03;89.53
16694;BME280;39538;52.196;9.892;2022-11-15T02:55:51;100000.03;;;11.08;89.25
16694;BME280;39538;52.196;9.892;2022-11-15T02:58:35;99997.00;;;11.12;88.92
16694;BME280;39538;52.196;9.892;2022-11-15T03:01:12;99999.22;;;11.07;89.10
16694;BME280;39538;52.196;9.892;2022-11-15T03:03:51;100002.81;;;11.06;89.43
16694;BME280;39538;52.196;9.892;2022-11-15T03:06:30;100005.72;;;11.14;89.10
16694;BME280;39538;52.196;9.892;2022-11-15T03:09:04;100003.88;;;11.26;87.95
16694;BME280;39538;52.196;9.892;2022-11-15T03:11:35;100006.53;;;11.26;87.78
16694;BME280;39538;52.196;9.892;2022-11-15T03:14:12;100002.69;;;11.19;87.78
16694;BME280;39538;52.196;9.892;2022-11-15T03:16:47;100005.34;;;11.19;87.57
16694;BME280;39538;52.196;9.892;2022-11-15T03:19:21;100012.94;;;11.12;87.62
16694;BME280;39538;52.196;9.892;2022-11-15T03:21:51;100010.41;;;11.11;87.80
16694;BME280;39538;52.196;9.892;2022-11-15T03:24:19;100004.84;;;11.14;87.36
16694;BME280;39538;52.196;9.892;2022-11-15T03:26:48;100004.84;;;11.14;87.33
16694;BME280;39538;52.196;9.892;2022-11-15T03:29:18;100004.38;;;11.09;87.29
16694;BME280;39538;52.196;9.892;2022-11-15T03:31:49;100004.53;;;11.07;87.32
16694;BME280;39538;52.196;9.892;2022-11-15T03:34:22;100001.97;;;11.06;86.96
16694;BME280;39538;52.196;9.892;2022-11-15T03:36:52;100002.09;;;11.04;87.05
16694;BME280;39538;52.196;9.892;2022-11-15T03:39:19;100008.03;;;10.96;87.14
16694;BME280;39538;52.196;9.892;2022-11-15T03:41:50;100006.59;;;10.92;87.56
16694;BME280;39538;52.196;9.892;2022-11-15T03:44:28;100013.25;;;10.87;87.43
16694;BME280;39538;52.196;9.892;2022-11-15T03:47:03;100007.81;;;10.77;88.16
16694;BME280;39538;52.196;9.892;2022-11-15T03:49:34;100014.19;;;10.74;87.96
16694;BME280;39538;52.196;9.892;2022-11-15T03:52:02;100017.00;;;10.73;88.37
16694;BME280;39538;52.196;9.892;2022-11-15T03:54:29;100025.44;;;10.67;88.52
16694;BME280;39538;52.196;9.892;2022-11-15T03:56:56;100018.19;;;10.69;88.20
16694;BME280;39538;52.196;9.892;2022-11-15T03:59:23;100015.91;;;10.64;88.38
16694;BME280;39538;52.196;9.892;2022-11-15T04:01:49;100017.47;;;10.67;88.51
16694;BME280;39538;52.196;9.892;2022-11-15T04:04:17;100009.75;;;10.64;88.43
16694;BME280;39538;52.196;9.892;2022-11-15T04:06:43;100005.28;;;10.53;88.64
16694;BME280;39538;52.196;9.892;2022-11-15T04:09:10;100011.94;;;10.47;88.99
16694;BME280;39538;52.196;9.892;2022-11-15T04:11:36;100004.44;;;10.41;89.40
16694;BME280;39538;52.196;9.892;2022-11-15T04:14:03;100001.56;;;10.33;89.44
16694;BME280;39538;52.196;9.892;2022-11-15T04:16:29;100005.63;;;10.26;89.55
16694;BME280;39538;52.196;9.892;2022-11-15T04:18:56;100005.72;;;10.24;89.81
16694;BME280;39538;52.196;9.892;2022-11-15T04:21:38;100001.50;;;10.22;89.88
16694;BME280;39538;52.196;9.892;2022-11-15T04:24:21;100007.25;;;10.16;90.23
16694;BME280;39538;52.196;9.892;2022-11-15T04:26:48;100013.06;;;10.09;90.55
16694;BME280;39538;52.196;9.892;2022-11-15T04:29:14;100013.28;;;10.06;90.73
16694;BME280;39538;52.196;9.892;2022-11-15T04:31:59;100018.44;;;9.97;91.00
16694;BME280;39538;52.196;9.892;2022-11-15T04:34:25;100024.44;;;9.87;91.13
16694;BME280;39538;52.196;9.892;2022-11-15T04:36:53;100014.19;;;9.83;90.97
16694;BME280;39538;52.196;9.892;2022-11-15T04:39:37;100011.38;;;9.73;91.29
16694;BME280;39538;52.196;9.892;2022-11-15T04:42:04;100018.84;;;9.68;91.78
16694;BME280;39538;52.196;9.892;2022-11-15T04:44:31;100012.41;;;9.59;92.30
16694;BME280;39538;52.196;9.892;2022-11-15T04:46:57;100006.28;;;9.59;92.70
16694;BME280;39538;52.196;9.892;2022-11-15T04:49:24;100011.00;;;9.66;92.58
16694;BME280;39538;52.196;9.892;2022-11-15T04:51:50;100007.84;;;9.61;92.89
16694;BME280;39538;52.196;9.892;2022-11-15T04:54:18;100005.25;;;9.48;93.19
16694;BME280;39538;52.196;9.892;2022-11-15T04:56:45;100008.13;;;9.45;93.69
16694;BME280;39538;52.196;9.892;2022-11-15T04:59:11;100001.56;;;9.51;94.36
16694;BME280;39538;52.196;9.892;2022-11-15T05:01:37;100001.81;;;9.59;94.18
16694;BME280;39538;52.196;9.892;2022-11-15T05:04:04;99999.91;;;9.61;93.80
16694;BME280;39538;52.196;9.892;2022-11-15T05:06:46;99999.41;;;9.56;93.73
16694;BME280;39538;52.196;9.892;2022-11-15T05:09:12;100005.31;;;9.60;93.51
16694;BME280;39538;52.196;9.892;2022-11-15T05:11:40;100016.88;;;9.59;93.20
16694;BME280;39538;52.196;9.892;2022-11-15T05:14:07;100008.88;;;9.47;93.25
16694;BME280;39538;52.196;9.892;2022-11-15T05:16:34;100007.25;;;9.34;93.37
16694;BME280;39538;52.196;9.892;2022-11-15T05:19:00;100006.44;;;9.20;93.89
16694;BME280;39538;52.196;9.892;2022-11-15T05:21:27;100012.47;;;9.22;95.09
16694;BME280;39538;52.196;9.892;2022-11-15T05:23:53;100004.44;;;9.24;95.51
16694;BME280;39538;52.196;9.892;2022-11-15T05:26:20;100009.63;;;9.25;95.43
16694;BME280;39538;52.196;9.892;2022-11-15T05:28:52;99999.75;;;9.27;95.45
16694;BME280;39538;52.196;9.892;2022-11-15T05:31:18;100002.53;;;9.26;95.15
16694;BME280;39538;52.196;9.892;2022-11-15T05:33:45;99997.63;;;9.33;95.38
16694;BME280;39538;52.196;9.892;2022-11-15T05:36:14;100002.38;;;9.27;95.37
16694;BME280;39538;52.196;9.892;2022-11-15T05:38:43;99998.28;;;9.23;95.27
16694;BME280;39538;52.196;9.892;2022-11-15T05:41:10;100002.03;;;9.21;95.49
16694;BME280;39538;52.196;9.892;2022-11-15T05:43:39;100007.00;;;9.13;96.23
16694;BME280;39538;52.196;9.892;2022-11-15T05:46:08;100003.94;;;9.19;96.39
16694;BME280;39538;52.196;9.892;2022-11-15T05:48:36;100010.84;;;9.08;96.09
16694;BME280;39538;52.196;9.892;2022-11-15T05:51:17;100003.34;;;9.02;96.06
16694;BME280;39538;52.196;9.892;2022-11-15T05:53:45;100012.56;;;8.97;95.88
16694;BME280;39538;52.196;9.892;2022-11-15T05:56:13;100001.19;;;8.83;95.68
16694;BME280;39538;52.196;9.892;2022-11-15T05:58:40;100013.69;;;8.81;96.51
16694;BME280;39538;52.196;9.892;2022-11-15T06:01:08;100008.72;;;8.77;96.56
16694;BME280;39538;52.196;9.892;2022-11-15T06:03:35;100008.22;;;8.59;96.93
16694;BME280;39538;52.196;9.892;2022-11-15T06:06:01;100007.25;;;8.60;97.06
16694;BME280;39538;52.196;9.892;2022-11-15T06:08:28;99997.63;;;8.59;97.51
16694;BME280;39538;52.196;9.892;2022-11-15T06:10:54;100000.81;;;8.51;97.47
16694;BME280;39538;52.196;9.892;2022-11-15T06:13:21;99996.16;;;8.55;97.74
16694;BME280;39538;52.196;9.892;2022-11-15T06:15:47;99993.50;;;8.55;98.10
16694;BME280;39538;52.196;9.892;2022-11-15T06:18:15;100006.13;;;8.51;98.53
16694;BME280;39538;52.196;9.892;2022-11-15T06:20:42;100011.72;;;8.47;98.86
16694;BME280;39538;52.196;9.892;2022-11-15T06:23:08;100015.06;;;8.36;99.37
16694;BME280;39538;52.196;9.892;2022-11-15T06:25:34;100019.75;;;8.32;100.00
16694;BME280;39538;52.196;9.892;2022-11-15T06:28:01;100033.22;;;8.42;100.00
16694;BME280;39538;52.196;9.892;2022-11-15T06:30:27;100026.22;;;8.54;100.00
16694;BME280;39538;52.196;9.892;2022-11-15T06:32:59;100027.38;;;8.62;100.00
16694;BME280;39538;52.196;9.892;2022-11-15T06:35:28;100030.13;;;8.61;100.00
16694;BME280;39538;52.196;9.892;2022-11-15T06:37:55;100022.19;;;8.61;100.00
16694;BME280;39538;52.196;9.892;2022-11-15T06:40:22;100033.69;;;8.73;100.00
16694;BME280;39538;52.196;9.892;2022-11-15T06:42:48;100030.50;;;8.93;100.00
16694;BME280;39538;52.196;9.892;2022-11-15T06:45:15;100035.22;;;9.01;100.00
16694;BME280;39538;52.196;9.892;2022-11-15T06:47:44;100036.03;;;9.14;98.92
16694;BME280;39538;52.196;9.892;2022-11-15T06:50:11;100026.91;;;9.18;97.98
16694;BME280;39538;52.196;9.892;2022-11-15T06:52:39;100028.59;;;9.19;97.15
16694;BME280;39538;52.196;9.892;2022-11-15T06:55:07;100028.59;;;9.19;97.04
16694;BME280;39538;52.196;9.892;2022-11-15T06:57:34;100032.81;;;9.22;96.52
16694;BME280;39538;52.196;9.892;2022-11-15T07:00:00;100049.78;;;9.19;96.60
16694;BME280;39538;52.196;9.892;2022-11-15T07:02:27;100045.84;;;9.25;96.34
16694;BME280;39538;52.196;9.892;2022-11-15T07:04:54;100041.44;;;9.37;95.94
16694;BME280;39538;52.196;9.892;2022-11-15T07:07:20;100044.41;;;9.45;95.49
16694;BME280;39538;52.196;9.892;2022-11-15T07:09:48;100043.31;;;9.47;94.44
16694;BME280;39538;52.196;9.892;2022-11-15T07:12:15;100046.59;;;9.51;93.92
16694;BME280;39538;52.196;9.892;2022-11-15T07:14:42;100043.38;;;9.59;93.71
16694;BME280;39538;52.196;9.892;2022-11-15T07:17:08;100036.50;;;9.56;93.17
16694;BME280;39538;52.196;9.892;2022-11-15T07:19:35;100045.53;;;9.54;93.00
16694;BME280;39538;52.196;9.892;2022-11-15T07:22:01;100037.78;;;9.50;93.09
16694;BME280;39538;52.196;9.892;2022-11-15T07:24:28;100042.47;;;9.47;93.52
16694;BME280;39538;52.196;9.892;2022-11-15T07:26:56;100050.59;;;9.57;93.02
16694;BME280;39538;52.196;9.892;2022-11-15T07:29:22;100046.75;;;9.61;92.83
16694;BME280;39538;52.196;9.892;2022-11-15T07:31:49;100046.53;;;9.64;92.83
16694;BME280;39538;52.196;9.892;2022-11-15T07:34:15;100040.25;;;9.65;93.12
16694;BME280;39538;52.196;9.892;2022-11-15T07:36:42;100040.84;;;9.92;92.70
16694;BME280;39538;52.196;9.892;2022-11-15T07:39:08;100045.81;;;10.55;90.29
16694;BME280;39538;52.196;9.892;2022-11-15T07:41:37;100046.41;;;10.92;86.60
16694;BME280;39538;52.196;9.892;2022-11-15T07:44:06;100051.72;;;10.81;85.26
16694;BME280;39538;52.196;9.892;2022-11-15T07:46:32;100042.81;;;10.60;85.54
16694;BME280;39538;52.196;9.892;2022-11-15T07:48:59;100048.72;;;10.41;86.53
16694;BME280;39538;52.196;9.892;2022-11-15T07:51:25;100033.75;;;10.28;87.05
16694;BME280;39538;52.196;9.892;2022-11-15T07:53:52;100045.88;;;10.20;87.90
16694;BME280;39538;52.196;9.892;2022-11-15T07:56:18;100047.69;;;10.19;88.04
16694;BME280;39538;52.196;9.892;2022-11-15T07:58:46;100034.34;;;10.32;88.32
16694;BME280;39538;52.196;9.892;2022-11-15T08:01:13;100042.31;;;10.88;86.82
16694;BME280;39538;52.196;9.892;2022-11-15T08:03:40;100042.31;;;10.88;84.78
16694;BME280;39538;52.196;9.892;2022-11-15T08:06:06;100036.78;;;10.69;84.76
16694;BME280;39538;52.196;9.892;2022-11-15T08:08:33;100033.63;;;10.52;85.68
16694;BME280;39538;52.196;9.892;2022-11-15T08:11:00;100032.31;;;10.36;86.38
16694;BME280;39538;52.196;9.892;2022-11-15T08:13:27;100030.00;;;10.31;86.59
16694;BME280;39538;52.196;9.892;2022-11-15T08:15:57;100039.38;;;10.24;87.48
16694;BME280;39538;52.196;9.892;2022-11-15T08:18:25;100034.91;;;10.24;87.92
16694;BME280;39538;52.196;9.892;2022-11-15T08:20:51;100033.22;;;10.23;87.97
16694;BME280;39538;52.196;9.892;2022-11-15T08:23:18;100026.31;;;10.21;88.23
16694;BME280;39538;52.196;9.892;2022-11-15T08:25:44;100034.41;;;10.19;88.35
16694;BME280;39538;52.196;9.892;2022-11-15T08:28:11;100039.38;;;10.24;88.19
16694;BME280;39538;52.196;9.892;2022-11-15T08:30:39;100036.03;;;10.33;88.07
16694;BME280;39538;52.196;9.892;2022-11-15T08:33:10;100036.28;;;10.41;87.77
16694;BME280;39538;52.196;9.892;2022-11-15T08:35:39;100036.75;;;10.46;87.74
16694;BME280;39538;52.196;9.892;2022-11-15T08:38:06;100033.75;;;10.51;87.44
16694;BME280;39538;52.196;9.892;2022-11-15T08:40:32;100038.22;;;10.62;87.33
16694;BME280;39538;52.196;9.892;2022-11-15T08:42:59;100035.94;;;10.68;87.14
16694;BME280;39538;52.196;9.892;2022-11-15T08:45:27;100026.75;;;10.84;86.96
16694;BME280;39538;52.196;9.892;2022-11-15T08:47:54;100025.78;;;10.96;86.07
16694;BME280;39538;52.196;9.892;2022-11-15T08:50:21;100024.69;;;11.10;85.19
16694;BME280;39538;52.196;9.892;2022-11-15T08:52:49;100018.00;;;11.15;84.97
16694;BME280;39538;52.196;9.892;2022-11-15T08:55:15;100006.97;;;11.31;84.36
16694;BME280;39538;52.196;9.892;2022-11-15T08:57:42;100006.69;;;11.46;83.70
16694;BME280;39538;52.196;9.892;2022-11-15T09:00:09;100005.81;;;11.56;83.17
16694;BME280;39538;52.196;9.892;2022-11-15T09:02:37;100005.41;;;11.93;81.65
16694;BME280;39538;52.196;9.892;2022-11-15T09:05:05;100002.50;;;12.48;80.52
16694;BME280;39538;52.196;9.892;2022-11-15T09:07:32;100003.50;;;13.47;75.57
16694;BME280;39538;52.196;9.892;2022-11-15T09:10:00;100014.44;;;14.50;71.87
16694;BME280;39538;52.196;9.892;2022-11-15T09:12:26;100011.22;;;16.01;66.18
16694;BME280;39538;52.196;9.892;2022-11-15T09:14:53;100026.88;;;17.51;60.57
16694;BME280;39538;52.196;9.892;2022-11-15T09:17:19;100024.91;;;18.19;57.68
16694;BME280;39538;52.196;9.892;2022-11-15T09:19:46;100036.16;;;18.14;55.57
16694;BME280;39538;52.196;9.892;2022-11-15T09:22:12;100031.50;;;17.24;57.95
16694;BME280;39538;52.196;9.892;2022-11-15T09:24:39;100024.69;;;17.71;56.78
16694;BME280;39538;52.196;9.892;2022-11-15T09:27:07;100025.13;;;18.81;54.19
16694;BME280;39538;52.196;9.892;2022-11-15T09:29:33;100031.72;;;19.02;51.87
16694;BME280;39538;52.196;9.892;2022-11-15T09:32:00;100036.28;;;19.87;50.21
16694;BME280;39538;52.196;9.892;2022-11-15T09:34:26;100026.59;;;19.77;49.64
16694;BME280;39538;52.196;9.892;2022-11-15T09:36:53;100017.13;;;20.57;47.89
16694;BME280;39538;52.196;9.892;2022-11-15T09:39:20;100027.41;;;20.83;47.22
16694;BME280;39538;52.196;9.892;2022-11-15T09:42:02;100027.88;;;21.17;45.45
16694;BME280;39538;52.196;9.892;2022-11-15T09:45:01;100026.72;;;22.05;44.49
16694;BME280;39538;52.196;9.892;2022-11-15T09:47:42;100024.50;;;23.13;42.27
16694;BME280;39538;52.196;9.892;2022-11-15T09:50:17;100036.97;;;23.08;41.14
16694;BME280;39538;52.196;9.892;2022-11-15T09:52:45;100033.03;;;23.79;40.64
16694;BME280;39538;52.196;9.892;2022-11-15T09:55:13;100037.84;;;24.23;39.11
16694;BME280;39538;52.196;9.892;2022-11-15T09:57:50;100037.22;;;23.94;39.51
16694;BME280;39538;52.196;9.892;2022-11-15T10:00:22;100023.25;;;24.04;39.42
16694;BME280;39538;52.196;9.892;2022-11-15T10:03:02;100034.50;;;23.81;39.26
16694;BME280;39538;52.196;9.892;2022-11-15T10:05:31;100028.94;;;23.34;39.64
16694;BME280;39538;52.196;9.892;2022-11-15T10:08:05;100024.25;;;22.67;40.87
16694;BME280;39538;52.196;9.892;2022-11-15T10:10:40;100024.16;;;22.88;40.84
16694;BME280;39538;52.196;9.892;2022-11-15T10:13:13;100027.94;;;23.49;39.34
16694;BME280;39538;52.196;9.892;2022-11-15T10:15:43;100029.72;;;23.15;39.52
16694;BME280;39538;52.196;9.892;2022-11-15T10:18:15;100012.38;;;21.83;42.07
16694;BME280;39538;52.196;9.892;2022-11-15T10:20:47;100016.38;;;20.93;43.72
16694;BME280;39538;52.196;9.892;2022-11-15T10:23:16;100005.72;;;22.07;42.01
16694;BME280;39538;52.196;9.892;2022-11-15T10:25:43;100020.50;;;21.11;42.97
16694;BME280;39538;52.196;9.892;2022-11-15T10:28:14;100012.72;;;22.23;41.51
16694;BME280;39538;52.196;9.892;2022-11-15T10:30:44;100014.09;;;22.41;41.34
16694;BME280;39538;52.196;9.892;2022-11-15T10:33:17;100011.53;;;22.33;40.81
16694;BME280;39538;52.196;9.892;2022-11-15T10:35:46;100009.84;;;20.58;44.38
16694;BME280;39538;52.196;9.892;2022-11-15T10:38:12;100003.31;;;20.52;45.00
16694;BME280;39538;52.196;9.892;2022-11-15T10:40:40;100003.56;;;20.66;44.96
16694;BME280;39538;52.196;9.892;2022-11-15T10:43:16;100007.50;;;20.99;44.85
16694;BME280;39538;52.196;9.892;2022-11-15T10:45:46;100005.94;;;20.31;45.13
16694;BME280;39538;52.196;9.892;2022-11-15T10:48:22;99991.75;;;19.53;47.17
16694;BME280;39538;52.196;9.892;2022-11-15T10:50:49;100001.53;;;18.36;49.76
16694;BME280;39538;52.196;9.892;2022-11-15T10:53:21;99990.72;;;17.13;53.62
16694;BME280;39538;52.196;9.892;2022-11-15T10:55:51;99984.09;;;16.22;57.10
16694;BME280;39538;52.196;9.892;2022-11-15T10:58:22;99974.63;;;15.66;59.27
16694;BME280;39538;52.196;9.892;2022-11-15T11:00:56;99976.63;;;15.46;60.85
16694;BME280;39538;52.196;9.892;2022-11-15T11:03:35;99959.97;;;15.16;61.90
16694;BME280;39538;52.196;9.892;2022-11-15T11:06:05;99975.91;;;15.08;62.36
16694;BME280;39538;52.196;9.892;2022-11-15T11:08:32;99970.75;;;14.79;63.39
16694;BME280;39538;52.196;9.892;2022-11-15T11:11:00;99976.34;;;14.48;65.04
16694;BME280;39538;52.196;9.892;2022-11-15T11:13:29;99970.31;;;14.46;65.35
16694;BME280;39538;52.196;9.892;2022-11-15T11:16:05;99978.19;;;14.38;65.87
16694;BME280;39538;52.196;9.892;2022-11-15T11:18:38;99956.34;;;14.15;66.97
16694;BME280;39538;52.196;9.892;2022-11-15T11:21:13;99954.81;;;14.12;67.42
16694;BME280;39538;52.196;9.892;2022-11-15T11:23:51;99956.78;;;14.10;67.78
16694;BME280;39538;52.196;9.892;2022-11-15T11:26:38;99954.13;;;14.10;68.37
16694;BME280;39538;52.196;9.892;2022-11-15T11:29:19;99949.94;;;13.98;68.91
16694;BME280;39538;52.196;9.892;2022-11-15T11:31:56;99953.75;;;13.85;69.19
16694;BME280;39538;52.196;9.892;2022-11-15T11:34:38;99946.88;;;13.83;69.57
16694;BME280;39538;52.196;9.892;2022-11-15T11:37:14;99958.00;;;13.78;69.37
16694;BME280;39538;52.196;9.892;2022-11-15T11:39:55;99951.56;;;13.61;70.41
16694;BME280;39538;52.196;9.892;2022-11-15T11:42:31;99943.56;;;13.61;70.48
16694;BME280;39538;52.196;9.892;2022-11-15T11:45:15;99945.66;;;13.48;70.84
16694;BME280;39538;52.196;9.892;2022-11-15T11:47:50;99955.19;;;13.51;70.72
16694;BME280;39538;52.196;9.892;2022-11-15T11:50:19;99944.66;;;13.49;71.23
16694;BME280;39538;52.196;9.892;2022-11-15T11:52:54;99941.16;;;13.48;70.91
16694;BME280;39538;52.196;9.892;2022-11-15T11:55:26;99935.13;;;13.46;71.47
16694;BME280;39538;52.196;9.892;2022-11-15T11:58:03;99939.50;;;13.47;70.96
16694;BME280;39538;52.196;9.892;2022-11-15T12:00:33;99939.91;;;13.43;71.00
16694;BME280;39538;52.196;9.892;2022-11-15T12:03:09;99936.56;;;13.31;71.22
16694;BME280;39538;52.196;9.892;2022-11-15T12:05:40;99942.16;;;13.28;71.59
16694;BME280;39538;52.196;9.892;2022-11-15T12:08:27;99934.16;;;13.28;71.24
16694;BME280;39538;52.196;9.892;2022-11-15T12:11:00;99927.81;;;13.58;71.06
16694;BME280;39538;52.196;9.892;2022-11-15T12:13:30;99913.16;;;13.91;70.06
16694;BME280;39538;52.196;9.892;2022-11-15T12:16:07;99910.53;;;14.29;68.39
16694;BME280;39538;52.196;9.892;2022-11-15T12:18:38;99911.03;;;14.32;67.83
16694;BME280;39538;52.196;9.892;2022-11-15T12:21:14;99917.16;;;14.43;66.94
16694;BME280;39538;52.196;9.892;2022-11-15T12:23:46;99917.97;;;14.25;67.87
16694;BME280;39538;52.196;9.892;2022-11-15T12:26:18;99911.97;;;14.13;67.77
16694;BME280;39538;52.196;9.892;2022-11-15T12:28:49;99913.81;;;14.13;68.24
16694;BME280;39538;52.196;9.892;2022-11-15T12:31:22;99903.94;;;14.51;67.01
16694;BME280;39538;52.196;9.892;2022-11-15T12:33:55;99903.56;;;14.73;65.96
16694;BME280;39538;52.196;9.892;2022-11-15T12:36:36;99896.44;;;14.82;65.49
16694;BME280;39538;52.196;9.892;2022-11-15T12:39:04;99897.97;;;14.85;65.47
16694;BME280;39538;52.196;9.892;2022-11-15T12:41:31;99898.56;;;15.06;64.95
16694;BME280;39538;52.196;9.892;2022-11-15T12:43:58;99900.91;;;15.27;64.34
16694;BME280;39538;52.196;9.892;2022-11-15T12:49:46;99881.66;;;15.24;63.67
16694;BME280;39538;52.196;9.892;2022-11-15T12:52:14;99883.22;;;15.08;63.92
16694;BME280;39538;52.196;9.892;2022-11-15T12:57:52;99873.13;;;15.02;64.26
16694;BME280;39538;52.196;9.892;2022-11-15T13:00:43;99863.63;;;15.08;64.57
16694;BME280;39538;52.196;9.892;2022-11-15T13:03:24;99868.78;;;15.01;64.68
16694;BME280;39538;52.196;9.892;2022-11-15T13:08:48;99857.44;;;14.71;65.78
16694;BME280;39538;52.196;9.892;2022-11-15T13:14:49;99850.56;;;14.87;65.76
16694;BME280;39538;52.196;9.892;2022-11-15T13:17:31;99857.41;;;14.99;65.91
16694;BME280;39538;52.196;9.892;2022-11-15T13:20:02;99851.31;;;15.15;65.35
16694;BME280;39538;52.196;9.892;2022-11-15T13:22:40;99844.69;;;15.63;64.67
16694;BME280;39538;52.196;9.892;2022-11-15T13:25:48;99849.56;;;15.68;63.22